Nearby METAR Reports

 

EGTE - Exeter Airport, United Kingdom
Distance from station: S 19km
Updated: 25/01/2020 18:50
NOT Current
Mist, Mostly cloudy
Mist, Mostly cloudy
 Wind from SSE
Wind: SSE 13 km/h
Temperature: 8°C
Wind Chill: 6°C
Dew Point: 8°C
Humidity: 100%
Barometer: 1013 hPa
Summary: Mist
Clouds: Mostly cloudy
Visibility: 5 km
Cloud details: Mostly cloudy 183 m
2020/01/25 18:50 EGTE 251850Z 16007KT 5000 BR BKN006 08/08 Q1013
EGDY - Yeovilton (navy), United Kingdom
Distance from station: ENE 55km
Updated: 25/01/2020 19:50
Mist, Overcast
Mist, Overcast
 Wind from SE
Wind: SE 9 km/h
Temperature: 7°C
Wind Chill: 6°C
Dew Point: 7°C
Humidity: 100%
Barometer: 1014 hPa
Summary: Mist
Clouds: Overcast
Visibility: 2 km
Cloud details: Overcast 91 m
2020/01/25 19:50 EGDY 251950Z AUTO 14005KT 2300 BR OVC003/// 07/07 Q1014
 
EGFF - Cardiff-Wales Ar, United Kingdom
Distance from station: N 56km
Updated: 25/01/2020 19:50
Mist, Overcast
Mist, Overcast
 Wind from SE
Wind: SE 13 km/h
Temperature: 7°C
Wind Chill: 5°C
Dew Point: 7°C
Humidity: 100%
Barometer: 1013 hPa
Summary: Mist
Clouds: Overcast
Visibility: 2 km
Cloud details: Overcast 30 m
2020/01/25 19:50 EGFF 251950Z AUTO 14007KT 1500 BR OVC001 07/07 Q1013
EGDX - St Athan Raf, United Kingdom
Distance from station: N 58km
Updated: 01/04/2019 13:50
NOT Current
Clear
Clear
 Wind from E
Wind: E 15 km/h
Temperature: 11°C
Dew Point: 5°C
Humidity: 67%
Barometer: 1019 hPa
Clouds: Clear
Visibility: 10 km
2019/04/01 12:50 EGDX 011250Z AUTO 10008KT 9999 NCD 11/05 Q1019
 
EGGD - Bristol/Lulsgate, United Kingdom
Distance from station: NE 71km
Updated: 25/01/2020 19:50
Mist
Mist
 Wind from S
Wind: S 17 km/h
Temperature: 6°C
Wind Chill: 3°C
Dew Point: 6°C
Humidity: 100%
Barometer: 1013 hPa
Summary: Mist
Visibility: 1 km
2020/01/25 19:50 EGGD 251950Z AUTO 18009KT 1100 R27/1400 BR VV/// 06/06 Q1013